createdAt,value
2022-08-07T00:00:33.008Z,16.98
2022-08-07T00:03:20.006Z,18.95
2022-08-07T00:06:00.102Z,18.10
2022-08-07T00:08:47.004Z,16.17
2022-08-07T00:11:33.013Z,16.65
2022-08-07T00:14:30.212Z,15.85
2022-08-07T00:17:24.034Z,15.90
2022-08-07T00:20:15.625Z,17.00
2022-08-07T00:23:10.052Z,18.58
2022-08-07T00:26:18.681Z,16.83
2022-08-07T00:29:20.015Z,16.83
2022-08-07T00:32:10.029Z,16.88
2022-08-07T00:34:49.315Z,16.63
2022-08-07T00:37:47.731Z,16.80
2022-08-07T00:40:39.916Z,18.40
2022-08-07T00:43:58.909Z,16.45
2022-08-07T00:46:48.029Z,17.08
2022-08-07T00:50:20.670Z,16.08
2022-08-07T00:52:35.037Z,17.40
2022-08-07T00:55:25.540Z,18.10
2022-08-07T00:58:24.033Z,16.55
2022-08-07T01:01:13.079Z,16.73
2022-08-07T01:03:55.928Z,17.33
2022-08-07T01:06:46.025Z,17.20
2022-08-07T01:10:03.845Z,17.45
2022-08-07T01:12:29.878Z,17.55
2022-08-07T01:15:04.471Z,17.58
2022-08-07T01:17:51.062Z,18.42
2022-08-07T01:20:33.131Z,17.42
2022-08-07T01:23:20.057Z,16.83
2022-08-07T01:26:16.723Z,17.65
2022-08-07T01:29:14.073Z,18.70
2022-08-07T01:32:05.564Z,18.77
2022-08-07T01:34:47.286Z,17.50
2022-08-07T01:37:36.055Z,16.60
2022-08-07T01:40:19.044Z,18.98
2022-08-07T01:43:13.083Z,18.73
2022-08-07T01:46:03.066Z,18.95
2022-08-07T01:48:41.177Z,18.45
2022-08-07T01:52:01.852Z,16.65
2022-08-07T01:54:33.326Z,18.23
2022-08-07T01:57:28.091Z,19.40
2022-08-07T02:00:12.915Z,19.65
2022-08-07T02:03:18.554Z,16.85
2022-08-07T02:06:30.825Z,19.50
2022-08-07T02:09:52.402Z,19.02
2022-08-07T02:12:29.291Z,18.33
2022-08-07T02:15:28.020Z,19.40
2022-08-07T02:18:26.081Z,17.13
2022-08-07T02:21:24.093Z,17.85
2022-08-07T02:24:20.092Z,18.80
2022-08-07T02:27:09.109Z,18.88
2022-08-07T02:29:43.514Z,17.02
2022-08-07T02:33:00.587Z,18.23
2022-08-07T02:36:26.929Z,18.00
2022-08-07T02:38:50.693Z,18.02
2022-08-07T02:41:38.135Z,17.98
2022-08-07T02:44:34.234Z,16.23
2022-08-07T02:47:19.599Z,19.50
2022-08-07T02:50:07.105Z,17.50
2022-08-07T02:52:55.098Z,20.15
2022-08-07T02:56:04.076Z,18.13
2022-08-07T02:58:47.379Z,18.63
2022-08-07T03:01:36.438Z,20.25
2022-08-07T03:04:23.149Z,19.67
2022-08-07T03:07:11.131Z,19.58
2022-08-07T03:09:48.259Z,19.13
2022-08-07T03:12:37.125Z,21.38
2022-08-07T03:15:30.214Z,18.88
2022-08-07T03:18:20.346Z,20.15
2022-08-07T03:21:04.123Z,20.77
2022-08-07T03:24:26.002Z,19.60
2022-08-07T03:26:51.024Z,19.75
2022-08-07T03:29:49.318Z,20.35
2022-08-07T03:32:36.131Z,20.15
2022-08-07T03:35:26.313Z,18.30
2022-08-07T03:38:04.754Z,19.20
2022-08-07T03:40:57.229Z,19.25
2022-08-07T03:43:39.121Z,19.67
2022-08-07T03:46:33.133Z,18.30
2022-08-07T03:49:14.125Z,19.90
2022-08-07T03:52:22.300Z,19.35
2022-08-07T03:55:11.130Z,18.92
2022-08-07T03:58:33.180Z,19.52
2022-08-07T04:00:59.435Z,19.20
2022-08-07T04:03:54.038Z,19.85
2022-08-07T04:06:44.207Z,18.35
2022-08-07T04:09:19.448Z,18.48
2022-08-07T04:12:24.309Z,17.92
2022-08-07T04:15:11.132Z,18.10
2022-08-07T04:18:59.067Z,19.73
2022-08-07T04:21:07.453Z,18.77
2022-08-07T04:24:05.950Z,19.42
2022-08-07T04:26:47.144Z,18.70
2022-08-07T04:29:27.159Z,18.10
2022-08-07T04:32:15.321Z,17.95
2022-08-07T04:35:03.951Z,18.40
2022-08-07T04:38:03.815Z,16.80
2022-08-07T04:41:01.157Z,17.15
2022-08-07T04:44:11.862Z,18.33
2022-08-07T04:47:57.211Z,16.33
2022-08-07T04:50:58.194Z,17.52
2022-08-07T04:54:05.487Z,16.77
2022-08-07T04:58:11.440Z,16.90
2022-08-07T05:00:30.125Z,16.98
2022-08-07T05:03:17.129Z,17.38
2022-08-07T05:06:20.097Z,16.05
2022-08-07T05:09:10.321Z,19.13
2022-08-07T05:12:02.547Z,16.20
2022-08-07T05:15:03.419Z,16.17
2022-08-07T05:18:08.625Z,15.90
2022-08-07T05:21:05.205Z,16.30
2022-08-07T05:24:02.325Z,17.60
2022-08-07T05:26:50.171Z,15.85
2022-08-07T05:29:25.269Z,16.02
2022-08-07T05:32:27.199Z,15.73
2022-08-07T05:35:02.319Z,17.35
2022-08-07T05:37:43.209Z,18.40
2022-08-07T05:40:24.207Z,17.63
2022-08-07T05:43:03.362Z,17.83
2022-08-07T05:45:57.185Z,17.20
2022-08-07T05:48:30.256Z,17.20
2022-08-07T05:51:18.198Z,17.50
2022-08-07T05:54:12.271Z,18.40
2022-08-07T05:56:55.201Z,17.25
2022-08-07T05:59:38.928Z,16.90
2022-08-07T06:02:39.210Z,17.77
2022-08-07T06:05:28.186Z,18.63
2022-08-07T06:08:14.647Z,17.33
2022-08-07T06:11:11.205Z,17.33
2022-08-07T06:14:12.653Z,16.73
2022-08-07T06:16:56.491Z,17.48
2022-08-07T06:19:47.782Z,17.85
2022-08-07T06:22:40.390Z,17.65
2022-08-07T06:25:14.280Z,17.45
2022-08-07T06:28:14.891Z,15.48
2022-08-07T06:30:52.992Z,17.52
2022-08-07T06:33:40.213Z,17.70
2022-08-07T06:36:35.366Z,17.20
2022-08-07T06:40:16.506Z,17.05
2022-08-07T06:42:34.888Z,17.33
2022-08-07T06:45:31.229Z,16.90
2022-08-07T06:48:25.269Z,17.73
2022-08-07T06:51:07.855Z,18.17
2022-08-07T06:55:27.766Z,19.58
2022-08-07T06:56:57.223Z,19.17
2022-08-07T07:00:14.211Z,16.35
2022-08-07T07:03:13.697Z,18.42
2022-08-07T07:06:05.324Z,19.60
2022-08-07T07:08:39.874Z,18.95
2022-08-07T07:12:08.441Z,15.98
2022-08-07T07:14:31.334Z,16.75
2022-08-07T07:17:28.793Z,16.92
2022-08-07T07:20:18.366Z,18.02
2022-08-07T07:24:06.052Z,17.05
2022-08-07T07:26:34.318Z,16.38
2022-08-07T07:29:56.456Z,15.98
2022-08-07T07:32:26.241Z,16.80
2022-08-07T07:35:23.260Z,16.65
2022-08-07T07:38:20.259Z,16.08
2022-08-07T07:41:19.262Z,16.17
2022-08-07T07:44:17.161Z,17.40
2022-08-07T07:47:14.067Z,16.70
2022-08-07T07:50:32.676Z,15.77
2022-08-07T07:53:20.156Z,16.80
2022-08-07T07:56:06.332Z,18.45
2022-08-07T07:58:56.253Z,16.60
2022-08-07T08:02:01.700Z,17.35
2022-08-07T08:04:40.337Z,15.43
2022-08-07T08:07:15.356Z,15.35
2022-08-07T08:10:09.276Z,15.10
2022-08-07T08:12:59.684Z,14.75
2022-08-07T08:15:58.546Z,16.75
2022-08-07T08:18:34.376Z,16.00
2022-08-07T08:21:55.667Z,15.68
2022-08-07T08:25:09.447Z,14.43
2022-08-07T08:28:09.277Z,15.77
2022-08-07T08:30:51.521Z,18.02
2022-08-07T08:33:49.087Z,19.83
2022-08-07T08:36:29.728Z,18.40
2022-08-07T08:39:17.337Z,17.20
2022-08-07T08:42:03.370Z,18.85
2022-08-07T08:44:59.300Z,18.35
2022-08-07T08:47:52.666Z,16.05
2022-08-07T08:50:48.300Z,15.73
2022-08-07T08:53:42.917Z,21.35
2022-08-07T08:56:47.178Z,15.75
2022-08-07T08:59:42.144Z,15.88
2022-08-07T09:02:52.367Z,20.35
2022-08-07T09:06:01.305Z,16.40
2022-08-07T09:09:13.568Z,15.07
2022-08-07T09:12:31.056Z,16.38
2022-08-07T09:16:21.764Z,15.40
2022-08-07T09:19:44.858Z,15.57
2022-08-07T09:24:32.505Z,13.90
2022-08-07T09:25:39.480Z,15.52
2022-08-07T09:30:02.249Z,16.27
2022-08-07T09:31:48.474Z,15.45
2022-08-07T09:36:02.952Z,16.13
2022-08-07T09:38:37.336Z,15.20
2022-08-07T09:41:18.331Z,14.52
2022-08-07T09:44:19.457Z,15.88
2022-08-07T09:47:55.997Z,14.80
2022-08-07T09:51:25.956Z,15.90
2022-08-07T09:54:27.208Z,14.45
2022-08-07T09:57:20.347Z,14.82
2022-08-07T10:00:14.497Z,15.18
2022-08-07T10:04:03.081Z,15.27
2022-08-07T10:07:00.343Z,15.52
2022-08-07T10:10:12.129Z,15.10
2022-08-07T10:14:00.243Z,15.43
2022-08-07T10:17:02.368Z,15.93
2022-08-07T10:20:20.582Z,15.52
2022-08-07T10:24:06.373Z,15.55
2022-08-07T10:27:10.337Z,14.88
2022-08-07T10:30:19.396Z,14.40
2022-08-07T10:34:05.994Z,15.65
2022-08-07T10:36:55.358Z,15.05
2022-08-07T10:40:05.935Z,16.45
2022-08-07T10:43:34.526Z,15.70
2022-08-07T10:46:56.355Z,15.18
2022-08-07T10:49:49.095Z,13.93
2022-08-07T10:52:50.843Z,13.23
2022-08-07T10:55:38.068Z,14.73
2022-08-07T10:59:02.371Z,15.82
2022-08-07T11:02:02.530Z,16.40
2022-08-07T11:05:05.488Z,14.05
2022-08-07T11:07:59.645Z,15.88
2022-08-07T11:10:59.866Z,15.40
2022-08-07T11:14:43.410Z,15.00
2022-08-07T11:16:45.874Z,15.25
2022-08-07T11:19:47.378Z,14.10
2022-08-07T11:22:46.621Z,13.88
2022-08-07T11:25:50.228Z,14.65
2022-08-07T11:28:53.520Z,13.93
2022-08-07T11:31:45.373Z,13.65
2022-08-07T11:34:56.415Z,14.10
2022-08-07T11:38:10.071Z,16.75
2022-08-07T11:40:53.468Z,16.20
2022-08-07T11:44:12.073Z,15.73
2022-08-07T11:47:14.401Z,14.65
2022-08-07T11:50:35.393Z,16.05
2022-08-07T11:53:35.261Z,15.50
2022-08-07T11:56:26.641Z,14.73
2022-08-07T12:00:10.139Z,16.13
2022-08-07T12:03:44.998Z,14.70
2022-08-07T12:06:59.035Z,14.13
2022-08-07T12:09:43.560Z,13.98
2022-08-07T12:12:42.407Z,14.63
2022-08-07T12:15:46.467Z,16.50
2022-08-07T12:18:55.402Z,14.57
2022-08-07T12:22:36.393Z,16.00
2022-08-07T12:26:02.869Z,16.10
2022-08-07T12:28:55.480Z,14.85
2022-08-07T12:32:12.422Z,13.85
2022-08-07T12:35:00.852Z,14.52
2022-08-07T12:38:10.806Z,13.95
2022-08-07T12:40:48.603Z,14.00
2022-08-07T12:44:03.650Z,15.30
2022-08-07T12:46:55.460Z,13.70
2022-08-07T12:50:04.843Z,14.73
2022-08-07T12:53:19.030Z,15.13
2022-08-07T12:56:37.438Z,15.10
2022-08-07T12:59:54.502Z,14.30
2022-08-07T13:02:50.443Z,15.40
2022-08-07T13:06:04.013Z,14.90
2022-08-07T13:10:21.920Z,15.00
2022-08-07T13:12:47.434Z,14.98
2022-08-07T13:15:35.567Z,13.77
2022-08-07T13:18:41.467Z,14.82
2022-08-07T13:21:37.404Z,14.93
2022-08-07T13:25:02.624Z,15.43
2022-08-07T13:28:11.617Z,15.88
2022-08-07T13:31:06.422Z,16.30
2022-08-07T13:34:34.688Z,15.52
2022-08-07T13:37:19.913Z,15.15
2022-08-07T13:40:42.666Z,14.57
2022-08-07T13:43:21.752Z,14.40
2022-08-07T13:46:23.227Z,14.63
2022-08-07T13:50:33.118Z,15.10
2022-08-07T13:52:32.343Z,16.98
2022-08-07T13:55:26.907Z,15.40
2022-08-07T13:58:31.643Z,14.65
2022-08-07T14:01:26.512Z,14.55
2022-08-07T14:04:09.476Z,14.25
2022-08-07T14:07:05.501Z,15.20
2022-08-07T14:10:21.682Z,15.65
2022-08-07T14:13:10.478Z,14.60
2022-08-07T14:16:15.142Z,14.07
2022-08-07T14:18:58.490Z,15.30
2022-08-07T14:22:04.027Z,15.18
2022-08-07T14:24:48.617Z,14.23
2022-08-07T14:28:10.987Z,14.63
2022-08-07T14:30:45.804Z,14.40
2022-08-07T14:33:45.082Z,14.20
2022-08-07T14:36:27.506Z,14.85
2022-08-07T14:40:17.515Z,15.02
2022-08-07T14:42:34.501Z,15.85
2022-08-07T14:48:21.500Z,15.30
2022-08-07T14:51:16.291Z,14.95
2022-08-07T14:54:30.918Z,14.35
2022-08-07T14:57:08.500Z,16.52
2022-08-07T15:02:56.703Z,15.75
2022-08-07T15:08:54.581Z,16.02
2022-08-07T15:11:54.514Z,13.82
2022-08-07T15:14:57.667Z,15.15
2022-08-07T15:17:56.534Z,13.07
2022-08-07T15:20:54.931Z,14.10
2022-08-07T15:25:14.890Z,14.68
2022-08-07T15:26:44.748Z,14.88
2022-08-07T15:30:09.265Z,14.18
2022-08-07T15:32:39.570Z,15.63
2022-08-07T15:36:00.702Z,15.50
2022-08-07T15:38:59.099Z,13.27
2022-08-07T15:44:52.670Z,13.52
2022-08-07T15:51:01.918Z,12.57
2022-08-07T15:53:53.118Z,13.82
2022-08-07T15:56:41.653Z,15.30
2022-08-07T15:59:38.929Z,15.05
2022-08-07T16:02:40.562Z,13.77
2022-08-07T16:05:36.551Z,15.07
2022-08-07T16:08:38.443Z,13.80
2022-08-07T16:11:41.667Z,13.57
2022-08-07T16:14:36.633Z,15.38
2022-08-07T16:18:01.296Z,12.73
2022-08-07T16:22:01.477Z,13.18
2022-08-07T16:24:34.275Z,13.80
2022-08-07T16:27:18.785Z,14.23
2022-08-07T16:30:30.131Z,13.13
2022-08-07T16:34:01.992Z,14.10
2022-08-07T16:37:00.158Z,14.50
2022-08-07T16:40:28.974Z,14.52
2022-08-07T16:43:13.719Z,12.98
2022-08-07T16:50:28.561Z,14.50
2022-08-07T16:53:56.961Z,14.00
2022-08-07T16:56:53.339Z,13.57
2022-08-07T16:59:54.604Z,15.82
2022-08-07T17:03:59.429Z,15.10
2022-08-07T17:06:31.036Z,13.02
2022-08-07T17:10:06.852Z,13.43
2022-08-07T17:13:08.615Z,12.95
2022-08-07T17:16:27.588Z,12.60
2022-08-07T17:19:15.561Z,13.98
2022-08-07T17:22:14.579Z,14.05
2022-08-07T17:24:47.658Z,12.55
2022-08-07T17:27:58.628Z,13.48
2022-08-07T17:30:48.942Z,16.17
2022-08-07T17:34:15.545Z,17.60
2022-08-07T17:36:57.484Z,14.10
2022-08-07T17:39:58.514Z,13.25
2022-08-07T17:42:58.295Z,13.70
2022-08-07T17:46:15.622Z,15.18
2022-08-07T17:49:23.898Z,14.18
2022-08-07T17:52:20.610Z,13.55
2022-08-07T17:56:00.078Z,13.40
2022-08-07T17:58:46.445Z,15.10
2022-08-07T18:01:36.807Z,15.07
2022-08-07T18:04:41.630Z,15.85
2022-08-07T18:07:50.600Z,13.73
2022-08-07T18:12:07.969Z,14.40
2022-08-07T18:14:44.974Z,14.32
2022-08-07T18:18:45.957Z,14.00
2022-08-07T18:21:42.280Z,13.70
2022-08-07T18:24:37.622Z,15.55
2022-08-07T18:27:58.611Z,16.25
2022-08-07T18:30:50.626Z,14.98
2022-08-07T18:33:55.273Z,14.38
2022-08-07T18:36:54.624Z,15.85
2022-08-07T18:40:06.871Z,14.38
2022-08-07T18:43:15.950Z,15.20
2022-08-07T18:46:27.522Z,15.15
2022-08-07T18:50:31.092Z,15.18
2022-08-07T18:53:12.851Z,15.82
2022-08-07T18:57:06.154Z,19.05
2022-08-07T19:00:32.439Z,19.75
2022-08-07T19:03:40.725Z,16.52
2022-08-07T19:06:35.646Z,16.17
2022-08-07T19:09:57.593Z,17.02
2022-08-07T19:12:53.601Z,15.10
2022-08-07T19:16:04.612Z,18.45
2022-08-07T19:19:38.659Z,18.38
2022-08-07T19:22:33.717Z,16.15
2022-08-07T19:26:22.649Z,16.92
2022-08-07T19:30:57.628Z,16.20
2022-08-07T19:32:07.955Z,16.35
2022-08-07T19:35:01.655Z,16.50
2022-08-07T19:37:55.389Z,16.63
2022-08-07T19:40:50.162Z,14.85
2022-08-07T19:43:45.611Z,16.58
2022-08-07T19:46:55.618Z,17.05
2022-08-07T19:49:56.691Z,14.52
2022-08-07T19:52:39.664Z,16.73
2022-08-07T19:55:15.776Z,16.13
2022-08-07T19:58:14.179Z,15.93
2022-08-07T20:01:01.677Z,17.08
2022-08-07T20:03:55.754Z,17.85
2022-08-07T20:06:49.666Z,15.63
2022-08-07T20:10:35.351Z,17.05
2022-08-07T20:12:59.682Z,16.60
2022-08-07T20:15:37.290Z,15.50
2022-08-07T20:18:32.735Z,15.23
2022-08-07T20:21:22.352Z,18.38
2022-08-07T20:24:10.804Z,17.02
2022-08-07T20:26:55.777Z,15.20
2022-08-07T20:29:58.387Z,15.70
2022-08-07T20:32:54.690Z,16.33
2022-08-07T20:36:03.133Z,16.58
2022-08-07T20:38:59.439Z,16.75
2022-08-07T20:41:38.493Z,16.05
2022-08-07T20:44:42.707Z,17.35
2022-08-07T20:47:55.947Z,15.18
2022-08-07T20:50:32.806Z,15.65
2022-08-07T20:53:26.011Z,16.27
2022-08-07T20:56:16.784Z,15.77
2022-08-07T21:00:05.593Z,17.70
2022-08-07T21:02:14.712Z,18.52
2022-08-07T21:05:52.853Z,16.08
2022-08-07T21:08:42.707Z,17.08
2022-08-07T21:11:40.136Z,17.23
2022-08-07T21:14:34.944Z,17.98
2022-08-07T21:18:06.219Z,17.45
2022-08-07T21:20:48.008Z,16.70
2022-08-07T21:24:07.718Z,18.85
2022-08-07T21:26:57.825Z,16.40
2022-08-07T21:30:07.714Z,16.95
2022-08-07T21:32:50.253Z,17.80
2022-08-07T21:36:06.585Z,16.20
2022-08-07T21:39:48.037Z,16.13
2022-08-07T21:42:54.077Z,15.65
2022-08-07T21:46:24.996Z,16.42
2022-08-07T21:49:40.686Z,17.83
2022-08-07T21:53:08.694Z,17.05
2022-08-07T21:56:36.558Z,17.98
2022-08-07T22:00:04.183Z,15.13
2022-08-07T22:02:59.742Z,15.75
2022-08-07T22:06:03.745Z,16.00
2022-08-07T22:09:01.737Z,18.88
2022-08-07T22:12:05.020Z,18.80
2022-08-07T22:16:39.029Z,19.05
2022-08-07T22:18:19.739Z,20.00
2022-08-07T22:22:02.203Z,18.30
2022-08-07T22:24:56.766Z,16.13
2022-08-07T22:28:07.697Z,18.50
2022-08-07T22:31:11.742Z,16.63
2022-08-07T22:34:28.630Z,17.85
2022-08-07T22:38:03.286Z,19.63
2022-08-07T22:41:03.762Z,18.70
2022-08-07T22:44:00.886Z,15.73
2022-08-07T22:47:04.530Z,16.48
2022-08-07T22:49:54.549Z,17.63
2022-08-07T22:53:02.754Z,17.85
2022-08-07T22:56:04.752Z,16.80
2022-08-07T22:59:22.791Z,19.33
2022-08-07T23:02:21.747Z,18.13
2022-08-07T23:06:09.777Z,19.20
2022-08-07T23:08:47.258Z,16.45
2022-08-07T23:11:59.428Z,17.85
2022-08-07T23:14:52.862Z,18.02
2022-08-07T23:17:51.778Z,18.27
2022-08-07T23:20:40.763Z,18.73
2022-08-07T23:24:06.492Z,19.20
2022-08-07T23:27:05.765Z,17.75
2022-08-07T23:30:38.574Z,17.23
2022-08-07T23:34:34.105Z,18.33
2022-08-07T23:37:37.934Z,17.52
2022-08-07T23:40:53.772Z,17.90
2022-08-07T23:44:03.778Z,16.88
2022-08-07T23:47:29.848Z,18.05
2022-08-07T23:50:54.685Z,15.88
2022-08-07T23:53:49.789Z,17.30
2022-08-07T23:57:09.791Z,15.55
